createdAt,value
2017-04-09T00:00:06.399Z,56.2
2017-04-09T00:10:06.370Z,55.7
2017-04-09T00:20:06.389Z,55.7
2017-04-09T00:30:06.364Z,55.7
2017-04-09T00:40:06.364Z,55.1
2017-04-09T00:50:06.368Z,55.1
2017-04-09T01:00:06.400Z,55.1
2017-04-09T01:10:06.402Z,55.1
2017-04-09T01:20:06.366Z,55.1
2017-04-09T01:30:06.363Z,55.1
2017-04-09T01:40:06.363Z,55.1
2017-04-09T01:50:06.392Z,54.6
2017-04-09T02:00:06.374Z,54.1
2017-04-09T02:10:06.396Z,54.1
2017-04-09T02:20:06.367Z,55.1
2017-04-09T02:30:06.370Z,55.1
2017-04-09T02:40:06.366Z,54.6
2017-04-09T02:50:06.364Z,54.1
2017-04-09T03:00:06.373Z,54.1
2017-04-09T03:10:06.364Z,54.6
2017-04-09T03:20:06.399Z,54.1
2017-04-09T03:30:06.364Z,54.6
2017-04-09T03:40:06.363Z,54.1
2017-04-09T03:50:06.370Z,54.1
2017-04-09T04:00:06.372Z,54.1
2017-04-09T04:10:06.369Z,54.1
2017-04-09T04:20:06.367Z,54.1
2017-04-09T04:30:06.374Z,54.1
2017-04-09T04:40:06.366Z,54.1
2017-04-09T04:50:06.379Z,53.5
2017-04-09T05:00:06.363Z,54.1
2017-04-09T05:10:06.396Z,53
2017-04-09T05:20:06.367Z,53
2017-04-09T05:30:06.396Z,53.5
2017-04-09T05:40:06.369Z,53
2017-04-09T05:50:06.363Z,53.5
2017-04-09T06:00:06.369Z,53.5
2017-04-09T06:10:06.398Z,53.5
2017-04-09T06:20:06.393Z,53
2017-04-09T06:30:06.369Z,53
2017-04-09T06:40:06.386Z,53.5
2017-04-09T06:50:06.366Z,53.5
2017-04-09T07:00:06.401Z,53.5
2017-04-09T07:10:06.367Z,54.1
2017-04-09T07:20:06.401Z,54.6
2017-04-09T07:30:01.078Z,54.1
2017-04-09T07:40:33.687Z,54.1
2017-04-09T07:50:16.375Z,54.6
2017-04-09T08:00:16.398Z,54.6
2017-04-09T08:10:03.089Z,55.7
2017-04-09T08:20:06.376Z,55.1
2017-04-09T08:30:06.405Z,55.1
2017-04-09T08:40:06.366Z,55.1
2017-04-09T08:50:00.893Z,56.2
2017-04-09T09:00:33.645Z,55.7
2017-04-09T09:10:14.530Z,56.2
2017-04-09T09:20:16.367Z,56.2
2017-04-09T09:30:16.369Z,55.7
2017-04-09T09:40:06.399Z,56.2
2017-04-09T09:50:06.369Z,56.2
2017-04-09T10:00:06.369Z,56.2
2017-04-09T10:10:06.400Z,56.2
2017-04-09T10:20:06.405Z,57.3
2017-04-09T10:30:06.369Z,57.3
2017-04-09T10:40:06.371Z,56.8
2017-04-09T10:50:06.370Z,57.3
2017-04-09T11:00:06.371Z,57.3
2017-04-09T11:10:06.372Z,57.3
2017-04-09T11:20:06.373Z,57.8
2017-04-09T11:30:06.373Z,57.8
2017-04-09T11:40:06.369Z,58.4
2017-04-09T11:50:06.366Z,58.4
2017-04-09T12:00:01.708Z,58.4
2017-04-09T12:10:06.379Z,58.4
2017-04-09T12:20:06.430Z,57.8
2017-04-09T12:30:06.376Z,58.4
2017-04-09T12:40:06.369Z,59.5
2017-04-09T12:50:06.406Z,59.5
2017-04-09T13:00:06.393Z,59.5
2017-04-09T13:10:06.400Z,58.9
2017-04-09T13:20:06.375Z,59.5
2017-04-09T13:30:06.381Z,59.5
2017-04-09T13:40:06.376Z,60
2017-04-09T13:50:06.394Z,59.5
2017-04-09T14:00:06.354Z,60
2017-04-09T14:10:06.373Z,59.5
2017-04-09T14:20:06.369Z,59.5
2017-04-09T14:30:06.398Z,60
2017-04-09T14:40:06.360Z,60
2017-04-09T14:50:06.372Z,60
2017-04-09T15:00:06.405Z,59.5
2017-04-09T15:10:06.394Z,60.5
2017-04-09T15:20:06.398Z,60.5
2017-04-09T15:30:06.371Z,60
2017-04-09T15:40:06.369Z,60.5
2017-04-09T15:50:06.368Z,59.5
2017-04-09T16:00:06.364Z,60.5
2017-04-09T16:10:06.376Z,60
2017-04-09T16:20:06.364Z,60
2017-04-09T16:30:06.368Z,60.5
2017-04-09T16:40:06.369Z,60.5
2017-04-09T16:50:06.405Z,60
2017-04-09T17:00:06.372Z,60.5
2017-04-09T17:10:06.367Z,60
2017-04-09T17:20:06.369Z,60.5
2017-04-09T17:30:06.368Z,60.5
2017-04-09T17:40:06.372Z,60
2017-04-09T17:50:06.415Z,60.5
2017-04-09T18:00:06.373Z,60.5
2017-04-09T18:10:06.372Z,60.5
2017-04-09T18:20:06.372Z,60
2017-04-09T18:30:06.373Z,60
2017-04-09T18:40:06.378Z,60.5
2017-04-09T18:50:06.376Z,60
2017-04-09T19:00:06.382Z,60
2017-04-09T19:10:06.376Z,60
2017-04-09T19:20:06.417Z,60.5
2017-04-09T19:30:06.451Z,60
2017-04-09T19:40:06.380Z,60
2017-04-09T19:50:06.382Z,60
2017-04-09T20:00:06.423Z,60
2017-04-09T20:10:06.402Z,60
2017-04-09T20:20:06.400Z,60
2017-04-09T20:30:06.363Z,60
2017-04-09T20:40:06.367Z,60.5
2017-04-09T20:50:06.362Z,60
2017-04-09T21:00:06.381Z,60.5
2017-04-09T21:10:06.369Z,59.5
2017-04-09T21:20:06.387Z,60
2017-04-09T21:30:06.380Z,60
2017-04-09T21:40:06.397Z,59.5
2017-04-09T21:50:06.363Z,59.5
2017-04-09T22:00:21.203Z,60
2017-04-09T22:10:16.371Z,60
2017-04-09T22:20:16.380Z,60
2017-04-09T22:30:16.403Z,59.5
2017-04-09T22:40:16.368Z,59.5
2017-04-09T22:50:16.368Z,59.5
2017-04-09T23:00:16.409Z,60
2017-04-09T23:10:08.630Z,58.9
2017-04-09T23:20:06.406Z,58.9
2017-04-09T23:30:06.348Z,59.5
2017-04-09T23:40:06.408Z,59.5
2017-04-09T23:50:06.373Z,58.9
